createdAt,value
2023-04-02T00:00:12.028Z,10.00
2023-04-02T00:03:01.766Z,9.90
2023-04-02T00:05:52.690Z,9.90
2023-04-02T00:08:26.583Z,9.80
2023-04-02T00:10:57.836Z,9.70
2023-04-02T00:13:32.224Z,9.70
2023-04-02T00:15:59.708Z,9.70
2023-04-02T00:18:27.649Z,9.60
2023-04-02T00:21:48.774Z,9.50
2023-04-02T00:24:21.627Z,9.50
2023-04-02T00:26:51.243Z,9.50
2023-04-02T00:29:19.705Z,9.40
2023-04-02T00:31:52.140Z,9.40
2023-04-02T00:34:27.864Z,9.50
2023-04-02T00:36:54.944Z,9.40
2023-04-02T00:39:30.630Z,9.40
2023-04-02T00:42:05.256Z,9.30
2023-04-02T00:44:38.641Z,9.30
2023-04-02T00:47:22.628Z,9.30
2023-04-02T00:50:11.470Z,9.30
2023-04-02T00:52:41.385Z,9.30
2023-04-02T00:55:15.799Z,9.30
2023-04-02T00:57:45.232Z,9.30
2023-04-02T01:00:30.610Z,9.30
2023-04-02T01:03:28.751Z,9.20
2023-04-02T01:06:10.602Z,9.20
2023-04-02T01:08:46.715Z,9.20
2023-04-02T01:11:41.503Z,9.20
2023-04-02T01:14:29.954Z,9.10
2023-04-02T01:17:38.938Z,9.10
2023-04-02T01:20:28.010Z,9.10
2023-04-02T01:23:05.829Z,9.10
2023-04-02T01:25:35.971Z,9.10
2023-04-02T01:28:29.492Z,9.10
2023-04-02T01:31:00.163Z,9.10
2023-04-02T01:33:34.445Z,9.10
2023-04-02T01:36:26.640Z,9.10
2023-04-02T01:39:33.941Z,9.10
2023-04-02T01:42:12.708Z,9.10
2023-04-02T01:44:44.191Z,9.10
2023-04-02T01:47:14.270Z,9.10
2023-04-02T01:49:43.696Z,9.10
2023-04-02T01:52:17.641Z,9.10
2023-04-02T01:54:47.203Z,9.10
2023-04-02T01:57:15.987Z,9.10
2023-04-02T01:59:43.241Z,9.10
2023-04-02T02:02:13.764Z,9.10
2023-04-02T02:04:43.200Z,9.10
2023-04-02T02:07:16.649Z,9.20
2023-04-02T02:09:48.459Z,9.20
2023-04-02T02:12:16.180Z,9.20
2023-04-02T02:14:49.031Z,9.20
2023-04-02T02:17:27.218Z,9.20
2023-04-02T02:19:59.752Z,9.10
2023-04-02T02:22:32.404Z,9.10
2023-04-02T02:25:05.262Z,9.10
2023-04-02T02:28:10.714Z,9.10
2023-04-02T02:30:43.239Z,9.20
2023-04-02T02:33:17.977Z,9.10
2023-04-02T02:35:54.511Z,9.10
2023-04-02T02:38:28.328Z,9.10
2023-04-02T02:41:03.825Z,9.10
2023-04-02T02:43:33.079Z,9.20
2023-04-02T02:46:04.327Z,9.20
2023-04-02T02:48:39.496Z,9.20
2023-04-02T02:51:10.861Z,9.10
2023-04-02T02:53:52.056Z,9.10
2023-04-02T02:56:21.505Z,9.10
2023-04-02T02:58:50.486Z,9.10
2023-04-02T03:01:22.846Z,9.10
2023-04-02T03:03:54.528Z,9.10
2023-04-02T03:06:22.875Z,9.10
2023-04-02T03:09:17.524Z,9.20
2023-04-02T03:11:56.213Z,9.10
2023-04-02T03:15:06.603Z,9.00
2023-04-02T03:17:41.146Z,9.10
2023-04-02T03:20:23.994Z,9.10
2023-04-02T03:23:00.510Z,9.00
2023-04-02T03:25:48.240Z,9.00
2023-04-02T03:28:21.876Z,9.00
2023-04-02T03:31:06.346Z,9.00
2023-04-02T03:33:45.303Z,9.10
2023-04-02T03:36:22.768Z,9.10
2023-04-02T03:38:52.201Z,9.10
2023-04-02T03:41:33.227Z,9.00
2023-04-02T03:44:07.581Z,9.00
2023-04-02T03:46:41.872Z,9.10
2023-04-02T03:49:18.236Z,9.00
2023-04-02T03:52:27.131Z,9.00
2023-04-02T03:54:58.863Z,9.00
2023-04-02T03:57:43.811Z,9.00
2023-04-02T04:00:37.548Z,9.00
2023-04-02T04:03:33.562Z,9.00
2023-04-02T04:06:09.565Z,9.00
2023-04-02T04:08:44.825Z,9.00
2023-04-02T04:11:22.193Z,9.00
2023-04-02T04:14:03.262Z,9.00
2023-04-02T04:16:40.177Z,9.00
2023-04-02T04:19:22.410Z,9.00
2023-04-02T04:21:53.893Z,9.00
2023-04-02T04:24:25.548Z,9.00
2023-04-02T04:27:17.137Z,9.00
2023-04-02T04:29:57.823Z,9.00
2023-04-02T04:32:35.370Z,9.00
2023-04-02T04:35:19.395Z,9.00
2023-04-02T04:37:53.650Z,8.90
2023-04-02T04:40:53.901Z,9.00
2023-04-02T04:43:45.798Z,9.00
2023-04-02T04:46:31.065Z,9.00
2023-04-02T04:49:33.162Z,8.90
2023-04-02T04:52:17.920Z,8.90
2023-04-02T04:54:46.658Z,8.90
2023-04-02T04:57:40.531Z,8.90
2023-04-02T05:00:25.826Z,8.90
2023-04-02T05:03:11.214Z,8.90
2023-04-02T05:05:40.456Z,8.90
2023-04-02T05:08:19.273Z,9.00
2023-04-02T05:11:01.595Z,9.00
2023-04-02T05:13:40.753Z,9.00
2023-04-02T05:16:31.338Z,9.10
2023-04-02T05:19:13.397Z,9.00
2023-04-02T05:21:51.784Z,9.00
2023-04-02T05:24:36.871Z,9.00
2023-04-02T05:27:16.023Z,9.00
2023-04-02T05:29:47.916Z,9.00
2023-04-02T05:32:24.315Z,9.00
2023-04-02T05:34:55.055Z,9.00
2023-04-02T05:37:27.426Z,9.00
2023-04-02T05:39:57.169Z,9.00
2023-04-02T05:42:28.800Z,9.10
2023-04-02T05:45:37.362Z,9.20
2023-04-02T05:48:37.655Z,9.20
2023-04-02T05:51:05.567Z,9.30
2023-04-02T05:53:41.525Z,9.30
2023-04-02T05:56:19.012Z,9.40
2023-04-02T05:59:07.556Z,9.50
2023-04-02T06:01:41.332Z,9.50
2023-04-02T06:04:21.018Z,9.60
2023-04-02T06:06:59.022Z,9.70
2023-04-02T06:09:47.209Z,9.70
2023-04-02T06:12:37.756Z,9.70
2023-04-02T06:15:12.802Z,9.80
2023-04-02T06:17:51.330Z,9.90
2023-04-02T06:20:20.933Z,9.90
2023-04-02T06:23:24.210Z,10.00
2023-04-02T06:26:00.209Z,10.00
2023-04-02T06:28:35.216Z,10.00
2023-04-02T06:31:14.778Z,10.10
2023-04-02T06:33:43.292Z,10.20
2023-04-02T06:36:13.834Z,10.20
2023-04-02T06:38:42.254Z,10.30
2023-04-02T06:41:24.730Z,10.40
2023-04-02T06:44:18.447Z,10.40
2023-04-02T06:47:03.209Z,10.60
2023-04-02T06:49:51.341Z,10.60
2023-04-02T06:52:27.133Z,10.70
2023-04-02T06:54:54.022Z,10.80
2023-04-02T06:57:21.785Z,10.80
2023-04-02T06:59:49.919Z,10.90
2023-04-02T07:02:39.742Z,10.90
2023-04-02T07:05:09.588Z,10.90
2023-04-02T07:07:40.100Z,10.90
2023-04-02T07:10:10.527Z,10.80
2023-04-02T07:12:37.501Z,10.80
2023-04-02T07:15:05.234Z,10.80
2023-04-02T07:17:32.163Z,10.60
2023-04-02T07:19:59.690Z,10.20
2023-04-02T07:22:26.904Z,9.90
2023-04-02T07:25:02.862Z,9.60
2023-04-02T07:27:30.593Z,9.50
2023-04-02T07:29:57.323Z,9.20
2023-04-02T07:32:24.469Z,9.00
2023-04-02T07:34:51.668Z,8.90
2023-04-02T07:37:18.565Z,8.80
2023-04-02T07:39:45.547Z,8.80
2023-04-02T07:42:12.267Z,8.80
2023-04-02T07:44:39.099Z,8.80
2023-04-02T07:47:06.025Z,8.70
2023-04-02T07:49:32.766Z,8.70
2023-04-02T07:51:59.461Z,8.50
2023-04-02T07:54:27.131Z,8.60
2023-04-02T07:56:53.980Z,8.70
2023-04-02T07:59:21.166Z,8.60
2023-04-02T08:01:48.203Z,8.60
2023-04-02T08:04:20.909Z,8.60
2023-04-02T08:06:48.966Z,8.70
2023-04-02T08:09:16.750Z,8.60
2023-04-02T08:11:44.044Z,8.50
2023-04-02T08:14:11.212Z,8.50
2023-04-02T08:16:53.115Z,8.40
2023-04-02T08:19:20.325Z,8.40
2023-04-02T08:21:50.406Z,8.40
2023-04-02T08:24:19.280Z,8.40
2023-04-02T08:26:47.418Z,8.40
2023-04-02T08:29:14.873Z,8.50
2023-04-02T08:31:41.729Z,8.40
2023-04-02T08:34:09.152Z,8.30
2023-04-02T08:36:39.063Z,8.30
2023-04-02T08:39:11.658Z,8.30
2023-04-02T08:41:44.321Z,8.30
2023-04-02T08:44:18.784Z,8.30
2023-04-02T08:46:54.350Z,8.40
2023-04-02T08:49:35.864Z,8.30
2023-04-02T08:52:04.266Z,8.20
2023-04-02T08:54:32.859Z,8.00
2023-04-02T08:57:09.366Z,8.00
2023-04-02T08:59:40.670Z,8.10
2023-04-02T09:02:29.449Z,8.00
2023-04-02T09:04:58.443Z,8.00
2023-04-02T09:07:26.931Z,7.90
2023-04-02T09:09:53.748Z,7.90
2023-04-02T09:12:28.760Z,7.90
2023-04-02T09:15:11.113Z,8.00
2023-04-02T09:17:50.644Z,8.00
2023-04-02T09:20:23.964Z,8.10
2023-04-02T09:22:53.329Z,8.20
2023-04-02T09:25:31.268Z,8.30
2023-04-02T09:28:02.297Z,8.40
2023-04-02T09:30:41.539Z,8.40
2023-04-02T09:33:09.257Z,8.30
2023-04-02T09:35:51.435Z,8.40
2023-04-02T09:38:22.575Z,8.30
2023-04-02T09:40:54.165Z,8.20
2023-04-02T09:43:22.402Z,8.10
2023-04-02T09:46:05.809Z,8.10
2023-04-02T09:48:40.703Z,8.10
2023-04-02T09:51:23.025Z,8.10
2023-04-02T09:53:51.201Z,8.20
2023-04-02T09:56:25.937Z,8.30
2023-04-02T09:59:16.562Z,8.40
2023-04-02T10:01:57.152Z,8.30
2023-04-02T10:04:44.738Z,8.40
2023-04-02T10:07:34.737Z,8.60
2023-04-02T10:10:12.219Z,8.80
2023-04-02T10:12:41.380Z,8.70
2023-04-02T10:15:17.074Z,8.70
2023-04-02T10:17:45.242Z,8.90
2023-04-02T10:20:20.985Z,9.10
2023-04-02T10:22:47.850Z,9.20
2023-04-02T10:25:20.455Z,9.20
2023-04-02T10:28:04.351Z,9.30
2023-04-02T10:30:37.715Z,9.50
2023-04-02T10:33:23.561Z,9.50
2023-04-02T10:36:33.626Z,9.60
2023-04-02T10:39:00.436Z,9.50
2023-04-02T10:41:42.747Z,9.60
2023-04-02T10:44:24.864Z,9.50
2023-04-02T10:47:16.622Z,9.50
2023-04-02T10:50:07.773Z,9.40
2023-04-02T10:53:06.448Z,9.50
2023-04-02T10:55:39.699Z,9.50
2023-04-02T10:58:19.082Z,9.70
2023-04-02T11:00:47.270Z,9.70
2023-04-02T11:03:23.813Z,9.90
2023-04-02T11:05:53.540Z,10.10
2023-04-02T11:08:43.314Z,10.30
2023-04-02T11:11:13.700Z,10.10
2023-04-02T11:14:14.230Z,9.90
2023-04-02T11:16:44.322Z,10.00
2023-04-02T11:19:14.804Z,10.10
2023-04-02T11:22:03.181Z,9.90
2023-04-02T11:24:42.408Z,10.20
2023-04-02T11:27:12.153Z,10.10
2023-04-02T11:29:52.317Z,9.70
2023-04-02T11:32:22.096Z,9.50
2023-04-02T11:34:56.464Z,9.30
2023-04-02T11:37:44.976Z,9.30
2023-04-02T11:40:12.154Z,9.30
2023-04-02T11:42:41.197Z,9.30
2023-04-02T11:45:51.825Z,9.30
2023-04-02T11:48:22.341Z,9.30
2023-04-02T11:50:49.323Z,9.40
2023-04-02T11:53:16.942Z,9.40
2023-04-02T11:55:46.109Z,9.40
2023-04-02T11:58:25.367Z,9.30
2023-04-02T12:00:52.165Z,9.20
2023-04-02T12:03:52.680Z,9.30
2023-04-02T12:06:39.765Z,9.20
2023-04-02T12:09:29.211Z,9.00
2023-04-02T12:11:58.950Z,8.90
2023-04-02T12:14:35.001Z,9.10
2023-04-02T12:17:05.449Z,9.10
2023-04-02T12:19:33.914Z,9.10
2023-04-02T12:22:01.628Z,9.20
2023-04-02T12:24:31.296Z,9.00
2023-04-02T12:27:22.572Z,8.90
2023-04-02T12:29:51.588Z,8.90
2023-04-02T12:32:30.104Z,8.70
2023-04-02T12:34:58.865Z,8.70
2023-04-02T12:37:28.436Z,8.80
2023-04-02T12:40:01.597Z,8.80
2023-04-02T12:42:29.840Z,8.80
2023-04-02T12:44:56.889Z,8.80
2023-04-02T12:47:24.309Z,8.70
2023-04-02T12:49:51.836Z,8.60
2023-04-02T12:52:21.519Z,8.60
2023-04-02T12:54:52.869Z,8.50
2023-04-02T12:57:40.587Z,8.60
2023-04-02T13:00:22.921Z,8.60
2023-04-02T13:03:03.353Z,8.70
2023-04-02T13:05:41.197Z,8.80
2023-04-02T13:08:17.169Z,8.80
2023-04-02T13:10:44.746Z,8.80
2023-04-02T13:13:17.064Z,8.90
2023-04-02T13:15:44.069Z,8.80
2023-04-02T13:18:13.905Z,8.80
2023-04-02T13:20:42.590Z,8.70
2023-04-02T13:23:31.444Z,8.50
2023-04-02T13:26:11.870Z,8.50
2023-04-02T13:28:39.223Z,8.40
2023-04-02T13:31:06.281Z,8.30
2023-04-02T13:33:33.174Z,8.20
2023-04-02T13:36:00.058Z,8.10
2023-04-02T13:38:26.945Z,8.10
2023-04-02T13:40:53.874Z,8.10
2023-04-02T13:43:21.044Z,8.10
2023-04-02T13:45:51.638Z,8.30
2023-04-02T13:48:18.693Z,8.30
2023-04-02T13:50:46.543Z,8.40
2023-04-02T13:53:21.229Z,8.30
2023-04-02T13:55:48.778Z,8.30
2023-04-02T13:58:15.564Z,8.30
2023-04-02T14:00:42.415Z,8.40
2023-04-02T14:03:22.006Z,8.40
2023-04-02T14:06:08.433Z,8.30
2023-04-02T14:08:56.299Z,8.30
2023-04-02T14:11:54.651Z,8.10
2023-04-02T14:14:30.565Z,8.00
2023-04-02T14:17:06.452Z,7.80
2023-04-02T14:20:01.604Z,7.80
2023-04-02T14:22:37.530Z,7.70
2023-04-02T14:25:07.648Z,7.70
2023-04-02T14:28:07.259Z,7.60
2023-04-02T14:30:48.785Z,7.60
2023-04-02T14:33:44.014Z,7.70
2023-04-02T14:36:22.006Z,7.80
2023-04-02T14:39:02.956Z,7.80
2023-04-02T14:41:46.232Z,7.70
2023-04-02T14:44:13.444Z,7.70
2023-04-02T14:46:41.763Z,7.70
2023-04-02T14:49:33.452Z,7.70
2023-04-02T14:52:04.793Z,7.70
2023-04-02T14:54:38.531Z,7.50
2023-04-02T14:57:18.902Z,7.40
2023-04-02T15:00:04.418Z,7.40
2023-04-02T15:02:39.582Z,7.40
2023-04-02T15:05:13.617Z,7.40
2023-04-02T15:07:51.937Z,7.40
2023-04-02T15:10:35.547Z,7.30
2023-04-02T15:13:07.995Z,7.30
2023-04-02T15:15:50.756Z,7.30
2023-04-02T15:18:18.316Z,7.20
2023-04-02T15:21:01.287Z,7.10
2023-04-02T15:23:31.112Z,7.00
2023-04-02T15:26:19.641Z,7.00
2023-04-02T15:29:02.101Z,6.90
2023-04-02T15:31:29.121Z,6.90
2023-04-02T15:34:18.951Z,7.00
2023-04-02T15:36:54.000Z,7.10
2023-04-02T15:39:48.878Z,7.10
2023-04-02T15:42:24.026Z,7.10
2023-04-02T15:44:53.593Z,7.20
2023-04-02T15:47:46.580Z,7.10
2023-04-02T15:50:19.601Z,6.90
2023-04-02T15:52:58.472Z,7.00
2023-04-02T15:55:45.960Z,7.00
2023-04-02T15:58:22.004Z,6.80
2023-04-02T16:00:56.466Z,6.70
2023-04-02T16:03:57.660Z,6.60
2023-04-02T16:06:43.450Z,6.60
2023-04-02T16:09:27.187Z,6.50
2023-04-02T16:12:08.836Z,6.50
2023-04-02T16:14:38.275Z,6.50
2023-04-02T16:17:23.854Z,6.50
2023-04-02T16:19:56.893Z,6.40
2023-04-02T16:22:29.908Z,6.30
2023-04-02T16:25:25.230Z,6.30
2023-04-02T16:28:03.323Z,6.30
2023-04-02T16:31:07.817Z,6.30
2023-04-02T16:33:59.658Z,6.40
2023-04-02T16:36:37.139Z,6.40
2023-04-02T16:39:14.347Z,6.40
2023-04-02T16:41:44.140Z,6.40
2023-04-02T16:44:19.777Z,6.40
2023-04-02T16:47:03.114Z,6.30
2023-04-02T16:49:36.773Z,6.20
2023-04-02T16:52:41.268Z,6.30
2023-04-02T16:55:09.045Z,6.30
2023-04-02T16:58:03.135Z,6.30
2023-04-02T17:00:59.982Z,6.20
2023-04-02T17:03:59.267Z,6.30
2023-04-02T17:06:43.111Z,6.20
2023-04-02T17:09:18.823Z,6.20
2023-04-02T17:11:50.369Z,6.10
2023-04-02T17:14:29.645Z,6.20
2023-04-02T17:17:03.128Z,6.10
2023-04-02T17:19:31.807Z,6.20
2023-04-02T17:22:02.826Z,6.20
2023-04-02T17:24:47.480Z,6.20
2023-04-02T17:27:29.069Z,6.20
2023-04-02T17:30:03.407Z,6.10
2023-04-02T17:32:33.640Z,6.10
2023-04-02T17:35:17.649Z,6.10
2023-04-02T17:38:02.524Z,6.00
2023-04-02T17:40:39.548Z,6.10
2023-04-02T17:43:39.458Z,6.00
2023-04-02T17:46:34.320Z,6.00
2023-04-02T17:49:28.284Z,6.00
2023-04-02T17:51:58.049Z,6.00
2023-04-02T17:54:37.118Z,6.00
2023-04-02T17:57:29.061Z,5.90
2023-04-02T18:00:19.303Z,6.00
2023-04-02T18:03:05.947Z,5.90
2023-04-02T18:05:44.948Z,5.90
2023-04-02T18:08:33.154Z,5.90
2023-04-02T18:11:06.117Z,5.90
2023-04-02T18:13:46.461Z,5.90
2023-04-02T18:16:33.603Z,5.90
2023-04-02T18:19:16.009Z,5.90
2023-04-02T18:22:09.117Z,5.80
2023-04-02T18:25:02.608Z,5.80
2023-04-02T18:27:56.325Z,5.80
2023-04-02T18:30:43.104Z,5.70
2023-04-02T18:33:25.240Z,5.70
2023-04-02T18:36:08.709Z,5.70
2023-04-02T18:39:01.477Z,5.70
2023-04-02T18:42:04.513Z,5.70
2023-04-02T18:45:03.402Z,5.70
2023-04-02T18:47:44.545Z,5.60
2023-04-02T18:50:20.817Z,5.60
2023-04-02T18:52:48.497Z,5.60
2023-04-02T18:55:20.745Z,5.60
2023-04-02T18:57:52.710Z,5.60
2023-04-02T19:00:34.406Z,5.60
2023-04-02T19:03:21.389Z,5.60
2023-04-02T19:06:02.950Z,5.60
2023-04-02T19:08:51.210Z,5.60
2023-04-02T19:11:28.299Z,5.60
2023-04-02T19:14:15.587Z,5.60
2023-04-02T19:16:59.847Z,5.60
2023-04-02T19:19:39.941Z,5.60
2023-04-02T19:22:30.078Z,5.60
2023-04-02T19:25:05.353Z,5.60
2023-04-02T19:27:32.595Z,5.60
2023-04-02T19:30:20.947Z,5.60
2023-04-02T19:33:14.043Z,5.60
2023-04-02T19:35:53.743Z,5.60
2023-04-02T19:38:31.089Z,5.60
2023-04-02T19:41:26.424Z,5.60
2023-04-02T19:43:54.898Z,5.60
2023-04-02T19:46:23.137Z,5.60
2023-04-02T19:49:05.199Z,5.60
2023-04-02T19:51:33.569Z,5.60
2023-04-02T19:54:00.831Z,5.60
2023-04-02T19:56:28.136Z,5.60
2023-04-02T19:58:56.663Z,5.60
2023-04-02T20:01:23.573Z,5.60
2023-04-02T20:03:50.414Z,5.60
2023-04-02T20:06:18.055Z,5.60
2023-04-02T20:08:45.655Z,5.60
2023-04-02T20:11:12.556Z,5.60
2023-04-02T20:13:39.323Z,5.60
2023-04-02T20:16:07.818Z,5.60
2023-04-02T20:18:36.991Z,5.60
2023-04-02T20:21:05.706Z,5.60
2023-04-02T20:23:33.145Z,5.60
2023-04-02T20:26:00.452Z,5.50
2023-04-02T20:28:27.739Z,5.60
2023-04-02T20:30:55.128Z,5.60
2023-04-02T20:33:24.370Z,5.60
2023-04-02T20:35:52.145Z,5.50
2023-04-02T20:38:19.190Z,5.60
2023-04-02T20:40:52.098Z,5.60
2023-04-02T20:43:19.010Z,5.60
2023-04-02T20:45:56.243Z,5.60
2023-04-02T20:48:25.563Z,5.60
2023-04-02T20:50:52.322Z,5.60
2023-04-02T20:53:19.947Z,5.50
2023-04-02T20:55:46.820Z,5.50
2023-04-02T20:58:18.247Z,5.60
2023-04-02T21:00:45.800Z,5.50
2023-04-02T21:03:12.670Z,5.50
2023-04-02T21:05:46.934Z,5.50
2023-04-02T21:08:14.202Z,5.40
2023-04-02T21:10:41.187Z,5.30
2023-04-02T21:13:07.982Z,5.40
2023-04-02T21:15:35.113Z,5.30
2023-04-02T21:18:02.326Z,5.30
2023-04-02T21:20:29.131Z,5.20
2023-04-02T21:22:55.853Z,5.20
2023-04-02T21:25:22.549Z,5.10
2023-04-02T21:27:49.345Z,5.00
2023-04-02T21:30:16.242Z,5.00
2023-04-02T21:32:43.147Z,5.00
2023-04-02T21:35:09.878Z,5.00
2023-04-02T21:37:36.595Z,5.00
2023-04-02T21:40:03.954Z,4.90
2023-04-02T21:42:30.633Z,4.90
2023-04-02T21:44:57.376Z,4.90
2023-04-02T21:47:24.855Z,4.90
2023-04-02T21:49:51.544Z,4.90
2023-04-02T21:52:18.363Z,4.90
2023-04-02T21:54:45.136Z,4.90
2023-04-02T21:57:11.875Z,4.90
2023-04-02T21:59:38.585Z,5.00
2023-04-02T22:02:05.390Z,5.00
2023-04-02T22:04:33.294Z,5.00
2023-04-02T22:07:00.295Z,5.00
2023-04-02T22:09:28.136Z,5.00
2023-04-02T22:12:02.392Z,5.00
2023-04-02T22:14:29.961Z,5.00
2023-04-02T22:16:58.625Z,5.00
2023-04-02T22:19:26.679Z,4.90
2023-04-02T22:21:53.485Z,4.90
2023-04-02T22:24:22.339Z,4.90
2023-04-02T22:26:49.864Z,4.90
2023-04-02T22:29:17.001Z,5.00
2023-04-02T22:31:43.754Z,4.90
2023-04-02T22:34:10.968Z,4.90
2023-04-02T22:36:37.736Z,4.90
2023-04-02T22:39:09.542Z,4.90
2023-04-02T22:41:36.301Z,4.90
2023-04-02T22:44:03.217Z,5.00
2023-04-02T22:46:30.865Z,5.00
2023-04-02T22:48:57.917Z,5.00
2023-04-02T22:51:26.036Z,5.10
2023-04-02T22:53:54.909Z,5.00
2023-04-02T22:56:26.621Z,5.10
2023-04-02T22:58:53.395Z,5.00
2023-04-02T23:01:24.140Z,5.00
2023-04-02T23:03:53.618Z,5.00
2023-04-02T23:06:20.426Z,5.00
2023-04-02T23:08:47.476Z,5.00
2023-04-02T23:11:16.553Z,5.00
2023-04-02T23:13:47.352Z,5.00
2023-04-02T23:16:16.295Z,4.90
2023-04-02T23:18:47.152Z,4.90
2023-04-02T23:21:15.025Z,4.90
2023-04-02T23:23:42.274Z,4.80
2023-04-02T23:26:12.142Z,4.80
2023-04-02T23:28:40.301Z,4.80
2023-04-02T23:31:11.062Z,4.80
2023-04-02T23:33:37.869Z,4.80
2023-04-02T23:36:20.678Z,4.80
2023-04-02T23:38:47.567Z,4.70
2023-04-02T23:41:15.946Z,4.70
2023-04-02T23:43:42.897Z,4.70
2023-04-02T23:46:11.446Z,4.70
2023-04-02T23:48:38.343Z,4.70
2023-04-02T23:51:05.802Z,4.70
2023-04-02T23:53:33.711Z,4.80
2023-04-02T23:56:00.802Z,4.80
2023-04-02T23:58:27.508Z,4.80
